Time;durP1;ratioP1;P1;durP2;ratioP2;P2;SDS_P1;SDS_P2;PMS_P1;PMS_P2;Temp;Humidity;BMP_temperature;BMP_pressure;BME280_temperature;BME280_humidity;BME280_pressure;Samples;Min_cycle;Max_cycle;Signal;HPM_P1;HPM_P2
2021/10/05 00:01:26;;;;;;;3.55;1.67;;;12.40;85.30;;;;;;5072400;28;20028;-76
2021/10/05 00:03:51;;;;;;;2.55;1.40;;;12.40;85.60;;;;;;5054142;28;20393;-75
2021/10/05 00:06:17;;;;;;;5.07;1.58;;;12.30;85.60;;;;;;5054284;28;20020;-76
2021/10/05 00:08:43;;;;;;;4.82;1.50;;;12.30;85.70;;;;;;5072451;28;20035;-75
2021/10/05 00:11:08;;;;;;;5.05;1.20;;;12.30;85.60;;;;;;5057554;28;20021;-74
2021/10/05 00:13:34;;;;;;;4.72;1.45;;;12.30;85.70;;;;;;5081692;28;20120;-75
2021/10/05 00:16:00;;;;;;;5.10;1.85;;;12.30;85.80;;;;;;5078931;28;20020;-74
2021/10/05 00:18:25;;;;;;;1.73;0.88;;;12.30;85.70;;;;;;5072961;28;20448;-76
2021/10/05 00:20:51;;;;;;;3.25;1.20;;;12.30;86.00;;;;;;5054206;28;20381;-76
2021/10/05 00:23:16;;;;;;;3.50;1.30;;;12.30;85.80;;;;;;5054529;28;20389;-76
2021/10/05 00:25:42;;;;;;;4.10;1.02;;;12.20;85.90;;;;;;5072538;28;20032;-74
2021/10/05 00:28:08;;;;;;;5.03;1.80;;;12.30;85.60;;;;;;5072773;28;20115;-75
2021/10/05 00:30:34;;;;;;;2.35;1.00;;;12.30;85.50;;;;;;5056186;28;20060;-76
2021/10/05 00:32:59;;;;;;;2.70;1.10;;;12.30;85.70;;;;;;5079973;28;20028;-76
2021/10/05 00:35:25;;;;;;;4.93;1.48;;;12.30;85.80;;;;;;5059804;28;20016;-75
2021/10/05 00:37:50;;;;;;;3.08;1.13;;;12.30;85.60;;;;;;5076474;28;20024;-75
2021/10/05 00:40:16;;;;;;;3.92;1.52;;;12.20;86.20;;;;;;5076013;28;20067;-77
2021/10/05 00:42:42;;;;;;;4.93;1.55;;;12.30;86.70;;;;;;5058337;28;20465;-76
2021/10/05 00:45:08;;;;;;;4.25;1.30;;;12.20;86.70;;;;;;5075899;28;20025;-75
2021/10/05 00:47:34;;;;;;;3.20;1.10;;;12.30;86.60;;;;;;5076295;28;20025;-76
2021/10/05 00:49:59;;;;;;;3.25;1.00;;;12.20;86.00;;;;;;5076092;28;20028;-75
2021/10/05 00:52:25;;;;;;;3.10;0.98;;;12.20;86.60;;;;;;5076294;28;20028;-76
2021/10/05 00:54:50;;;;;;;2.05;0.95;;;12.20;86.70;;;;;;5075710;28;20067;-76
2021/10/05 00:57:16;;;;;;;3.40;1.20;;;12.20;86.90;;;;;;5075805;28;20476;-75
2021/10/05 00:59:42;;;;;;;5.38;1.30;;;12.20;86.70;;;;;;5076233;28;20024;-76
2021/10/05 01:02:13;;;;;;;2.60;1.23;;;12.10;86.90;;;;;;5057415;28;20056;-76
2021/10/05 01:04:40;;;;;;;3.47;1.30;;;12.10;87.00;;;;;;5075786;28;20021;-76
2021/10/05 01:07:12;;;;;;;3.92;1.30;;;12.10;87.30;;;;;;5075903;28;20521;-75
2021/10/05 01:09:38;;;;;;;7.15;1.35;;;12.10;87.20;;;;;;5075857;28;20051;-76
2021/10/05 01:12:05;;;;;;;4.13;1.33;;;12.10;86.90;;;;;;5075600;28;20028;-76
2021/10/05 01:14:31;;;;;;;4.90;1.30;;;12.10;86.70;;;;;;5077193;28;20251;-75
2021/10/05 01:16:59;;;;;;;4.70;1.35;;;12.00;86.30;;;;;;5060651;28;20035;-74
2021/10/05 01:19:25;;;;;;;3.40;1.50;;;12.10;86.20;;;;;;5081420;28;20025;-76
2021/10/05 01:21:50;;;;;;;3.42;1.25;;;12.10;86.00;;;;;;5083221;28;20147;-74
2021/10/05 01:24:18;;;;;;;3.28;1.20;;;12.00;86.20;;;;;;5078082;28;20449;-76
2021/10/05 01:26:44;;;;;;;4.95;1.65;;;12.00;86.40;;;;;;5088211;28;20017;-76
2021/10/05 01:29:17;;;;;;;8.23;1.50;;;12.10;86.70;;;;;;5061056;28;20149;-75
2021/10/05 01:31:45;;;;;;;4.13;1.15;;;12.00;86.80;;;;;;5057323;28;20021;-75
2021/10/05 01:34:11;;;;;;;3.65;1.23;;;12.00;87.10;;;;;;5074988;28;20087;-75
2021/10/05 01:36:38;;;;;;;3.67;1.08;;;12.00;87.30;;;;;;5074849;28;20473;-75
2021/10/05 01:39:06;;;;;;;5.00;1.60;;;12.00;87.50;;;;;;5074595;28;20381;-75
2021/10/05 01:41:32;;;;;;;2.88;1.20;;;12.00;87.40;;;;;;5056875;28;20571;-75
2021/10/05 01:43:57;;;;;;;4.35;1.63;;;12.00;87.60;;;;;;5074386;28;20095;-75
2021/10/05 01:46:23;;;;;;;4.18;1.15;;;12.00;87.60;;;;;;5073939;28;20021;-76
2021/10/05 01:48:48;;;;;;;3.58;1.20;;;12.00;87.40;;;;;;5056878;28;20484;-76
2021/10/05 01:51:17;;;;;;;3.08;1.08;;;11.90;87.20;;;;;;5074583;28;20036;-76
2021/10/05 01:53:43;;;;;;;3.83;1.20;;;11.90;87.60;;;;;;5074734;28;20029;-75
2021/10/05 01:56:09;;;;;;;3.28;1.30;;;11.90;87.80;;;;;;5074601;28;20453;-75
2021/10/05 01:58:34;;;;;;;3.78;1.40;;;11.90;88.00;;;;;;5074565;28;20020;-76
2021/10/05 02:01:01;;;;;;;5.57;1.55;;;11.90;87.80;;;;;;5074229;28;20024;-76
2021/10/05 02:03:28;;;;;;;4.40;1.80;;;11.90;88.00;;;;;;5074494;28;20035;-76
2021/10/05 02:05:53;;;;;;;5.65;1.48;;;11.90;88.30;;;;;;5074435;28;20430;-76
2021/10/05 02:08:20;;;;;;;3.65;1.15;;;11.80;87.90;;;;;;5056703;28;20056;-76
2021/10/05 02:10:46;;;;;;;5.05;1.65;;;11.80;87.90;;;;;;5074314;28;20099;-74
2021/10/05 02:13:11;;;;;;;6.93;1.63;;;11.80;88.00;;;;;;5074050;28;20060;-75
2021/10/05 02:15:38;;;;;;;2.80;1.00;;;11.80;87.90;;;;;;5056833;28;20055;-75
2021/10/05 02:18:04;;;;;;;5.40;1.15;;;11.80;87.80;;;;;;5073827;28;20024;-75
2021/10/05 02:20:30;;;;;;;2.95;1.13;;;11.80;88.40;;;;;;5074178;28;20024;-77
2021/10/05 02:22:56;;;;;;;3.78;1.30;;;11.80;87.80;;;;;;5073985;28;20054;-76
2021/10/05 02:25:22;;;;;;;4.20;1.70;;;11.80;88.30;;;;;;5074092;28;20492;-75
2021/10/05 02:27:47;;;;;;;2.42;1.20;;;11.80;88.20;;;;;;5056440;28;20052;-75
2021/10/05 02:30:13;;;;;;;3.42;1.33;;;11.80;88.40;;;;;;5074372;28;20032;-75
2021/10/05 02:32:41;;;;;;;5.40;1.58;;;11.80;88.60;;;;;;5056320;28;20476;-76
2021/10/05 02:35:08;;;;;;;6.78;1.33;;;11.80;88.50;;;;;;5056114;28;20032;-76
2021/10/05 02:37:36;;;;;;;3.67;1.55;;;11.80;88.50;;;;;;5056135;28;20469;-75
2021/10/05 02:40:05;;;;;;;4.70;1.20;;;11.80;88.40;;;;;;5055980;28;20016;-76
2021/10/05 02:42:32;;;;;;;6.50;1.95;;;11.80;88.80;;;;;;5073503;28;20408;-75
2021/10/05 02:44:58;;;;;;;4.93;1.30;;;11.80;88.60;;;;;;5073578;28;20027;-76
2021/10/05 02:47:24;;;;;;;5.75;1.95;;;11.80;88.40;;;;;;5055998;28;20021;-74
2021/10/05 02:49:50;;;;;;;2.05;0.98;;;11.80;88.50;;;;;;5073820;28;20028;-76
2021/10/05 02:52:18;;;;;;;5.68;1.10;;;11.80;88.60;;;;;;5056386;28;20029;-76
2021/10/05 02:54:48;;;;;;;5.70;1.10;;;11.80;88.80;;;;;;5073658;28;20021;-74
2021/10/05 02:57:15;;;;;;;2.80;1.27;;;11.80;88.70;;;;;;5055827;28;20473;-75
2021/10/05 02:59:41;;;;;;;4.25;1.75;;;11.80;89.20;;;;;;5073516;28;20025;-74
2021/10/05 03:02:07;;;;;;;4.50;1.70;;;11.80;89.30;;;;;;5073647;28;20047;-75
2021/10/05 03:04:33;;;;;;;2.88;1.30;;;11.80;89.50;;;;;;5056127;28;20025;-74
2021/10/05 03:06:58;;;;;;;3.22;1.55;;;11.80;89.30;;;;;;5062681;28;20020;-74
2021/10/05 03:09:24;;;;;;;4.47;1.80;;;11.80;89.50;;;;;;5091242;28;20040;-74
2021/10/05 03:11:50;;;;;;;3.13;1.30;;;11.80;89.30;;;;;;5084276;28;20038;-74
2021/10/05 03:14:16;;;;;;;3.00;1.38;;;11.80;89.50;;;;;;5082142;28;20492;-76
2021/10/05 03:16:42;;;;;;;3.95;1.40;;;11.80;89.40;;;;;;5073667;28;20052;-76
2021/10/05 03:19:08;;;;;;;6.15;1.55;;;11.80;89.40;;;;;;5072823;28;20020;-76
2021/10/05 03:21:33;;;;;;;5.15;1.50;;;11.80;89.20;;;;;;5072977;28;20329;-76
2021/10/05 03:23:59;;;;;;;3.65;1.50;;;11.80;89.50;;;;;;5073237;28;20090;-76
2021/10/05 03:26:25;;;;;;;4.20;1.48;;;11.80;89.60;;;;;;5055355;28;20044;-76
2021/10/05 03:28:50;;;;;;;3.15;1.33;;;11.80;89.70;;;;;;5073497;28;20075;-75
2021/10/05 03:31:16;;;;;;;2.22;1.10;;;11.80;89.80;;;;;;5062164;28;20039;-76
2021/10/05 03:33:43;;;;;;;5.18;1.42;;;11.80;90.00;;;;;;5084676;28;20031;-75
2021/10/05 03:36:09;;;;;;;4.68;1.60;;;11.80;90.00;;;;;;5072362;28;20032;-75
2021/10/05 03:38:36;;;;;;;2.72;0.80;;;11.70;90.00;;;;;;5054301;28;20025;-75
2021/10/05 03:41:02;;;;;;;3.50;1.60;;;11.70;90.20;;;;;;5072270;28;20124;-75
2021/10/05 03:43:28;;;;;;;4.28;2.28;;;11.70;90.20;;;;;;5054595;28;20033;-76
2021/10/05 03:45:55;;;;;;;4.90;1.42;;;11.70;90.10;;;;;;5072659;28;20071;-76
2021/10/05 03:48:20;;;;;;;3.63;1.40;;;11.70;90.30;;;;;;5072246;28;20020;-77
2021/10/05 03:50:46;;;;;;;4.75;1.58;;;11.70;90.30;;;;;;5072307;28;20077;-75
2021/10/05 03:53:19;;;;;;;3.67;1.30;;;11.70;90.50;;;;;;5072383;28;20029;-76
2021/10/05 03:55:54;;;;;;;2.58;1.02;;;11.70;90.40;;;;;;5054726;28;20421;-76
2021/10/05 03:58:21;;;;;;;5.05;1.33;;;11.70;90.30;;;;;;5072372;28;20016;-76
2021/10/05 04:00:48;;;;;;;5.07;2.08;;;11.70;90.30;;;;;;5054257;28;20052;-75
2021/10/05 04:03:14;;;;;;;2.85;1.55;;;11.70;90.30;;;;;;5072644;28;20044;-75
2021/10/05 04:05:40;;;;;;;2.92;1.20;;;11.70;90.30;;;;;;5072476;28;20016;-76
2021/10/05 04:08:06;;;;;;;2.05;1.20;;;11.70;90.40;;;;;;5053093;28;20099;-76
2021/10/05 04:10:32;;;;;;;3.22;1.40;;;11.70;90.40;;;;;;5071837;28;20043;-74
2021/10/05 04:12:58;;;;;;;11.48;1.95;;;11.70;90.40;;;;;;5054136;28;20357;-74
2021/10/05 04:15:24;;;;;;;3.95;1.73;;;11.70;90.40;;;;;;5071430;28;20021;-75
2021/10/05 04:17:49;;;;;;;5.75;2.13;;;11.70;90.30;;;;;;5054241;28;20052;-75
2021/10/05 04:20:15;;;;;;;2.90;1.67;;;11.70;90.20;;;;;;5053797;28;20021;-75
2021/10/05 04:22:41;;;;;;;5.13;2.10;;;11.70;90.10;;;;;;5072102;28;20032;-76
2021/10/05 04:25:08;;;;;;;8.98;2.33;;;11.70;90.00;;;;;;5072208;28;20444;-76
2021/10/05 04:27:35;;;;;;;4.95;2.10;;;11.70;90.00;;;;;;5072528;28;20020;-76
2021/10/05 04:30:01;;;;;;;3.63;1.70;;;11.70;90.00;;;;;;5072187;28;20025;-76
2021/10/05 04:32:27;;;;;;;6.25;1.90;;;11.60;90.00;;;;;;5054179;28;20401;-75
2021/10/05 04:34:54;;;;;;;7.13;2.50;;;11.60;90.00;;;;;;5072345;28;20496;-76
2021/10/05 04:37:19;;;;;;;5.40;2.33;;;11.60;90.00;;;;;;5072090;28;20043;-75
2021/10/05 04:39:45;;;;;;;4.70;2.20;;;11.60;90.00;;;;;;5072019;28;20457;-75
2021/10/05 04:42:11;;;;;;;5.03;1.98;;;11.60;90.00;;;;;;5071825;28;20043;-76
2021/10/05 04:44:37;;;;;;;4.82;2.30;;;11.60;89.90;;;;;;5072266;28;20068;-76
2021/10/05 04:47:03;;;;;;;6.47;2.45;;;11.60;89.80;;;;;;5071835;28;20013;-75
2021/10/05 04:49:29;;;;;;;5.28;2.00;;;11.70;89.90;;;;;;5072571;28;20021;-75
2021/10/05 04:51:54;;;;;;;6.28;2.45;;;11.60;90.00;;;;;;5054159;28;20052;-75
2021/10/05 04:54:20;;;;;;;4.78;2.30;;;11.60;90.00;;;;;;5071990;28;20024;-75
2021/10/05 04:56:45;;;;;;;6.68;2.28;;;11.60;90.00;;;;;;5055740;28;20060;-75
2021/10/05 04:59:11;;;;;;;6.65;2.47;;;11.60;90.10;;;;;;5060200;28;20064;-75
2021/10/05 05:01:37;;;;;;;6.57;2.47;;;11.50;90.10;;;;;;5063238;28;20054;-74
2021/10/05 05:04:03;;;;;;;4.97;2.00;;;11.60;90.20;;;;;;5073167;28;20108;-75
2021/10/05 05:06:28;;;;;;;6.32;2.67;;;11.50;90.20;;;;;;5054249;28;20465;-74
2021/10/05 05:08:54;;;;;;;4.30;1.90;;;11.50;90.30;;;;;;5054272;28;20074;-76
2021/10/05 05:11:19;;;;;;;5.47;2.85;;;11.50;90.30;;;;;;5054140;28;20036;-76
2021/10/05 05:13:45;;;;;;;3.58;2.13;;;11.50;90.30;;;;;;5053989;28;20457;-76
2021/10/05 05:16:11;;;;;;;4.72;2.83;;;11.50;90.30;;;;;;5071809;28;20032;-75
2021/10/05 05:18:36;;;;;;;6.55;2.80;;;11.50;90.30;;;;;;5053929;28;20480;-76
2021/10/05 05:21:02;;;;;;;6.63;3.05;;;11.40;90.30;;;;;;5072138;28;20025;-76
2021/10/05 05:23:27;;;;;;;5.95;3.25;;;11.40;90.60;;;;;;5075290;28;20484;-75
2021/10/05 05:25:53;;;;;;;5.30;2.97;;;11.40;90.40;;;;;;5057769;28;20074;-77
2021/10/05 05:28:20;;;;;;;6.32;3.28;;;11.40;90.50;;;;;;5057529;28;20025;-75
2021/10/05 05:30:46;;;;;;;6.63;3.25;;;11.40;90.60;;;;;;5057923;28;20400;-76
2021/10/05 05:33:11;;;;;;;4.57;2.83;;;11.40;90.80;;;;;;5075791;28;20074;-75
2021/10/05 05:35:37;;;;;;;5.38;3.15;;;11.40;90.80;;;;;;5059400;28;20021;-75
2021/10/05 05:38:02;;;;;;;11.60;4.35;;;11.40;90.80;;;;;;5068539;28;20029;-75
2021/10/05 05:40:28;;;;;;;8.75;4.80;;;11.40;90.90;;;;;;5059358;28;20113;-76
2021/10/05 05:42:54;;;;;;;7.75;4.38;;;11.40;90.90;;;;;;5075135;28;20150;-75
2021/10/05 05:45:19;;;;;;;7.10;3.95;;;11.30;90.90;;;;;;5074909;28;20461;-76
2021/10/05 05:47:45;;;;;;;7.05;3.40;;;11.30;90.90;;;;;;5057073;28;20028;-76
2021/10/05 05:50:10;;;;;;;8.05;4.25;;;11.30;90.90;;;;;;5057571;28;20035;-73
2021/10/05 05:52:36;;;;;;;6.70;3.40;;;11.30;91.00;;;;;;5078300;28;20025;-75
2021/10/05 05:55:03;;;;;;;10.32;6.70;;;11.30;91.10;;;;;;5081236;28;20369;-74
2021/10/05 05:57:30;;;;;;;13.73;6.80;;;11.30;91.20;;;;;;5057106;28;20028;-75
2021/10/05 05:59:56;;;;;;;8.73;5.20;;;11.30;91.20;;;;;;5074590;28;20457;-75
2021/10/05 06:02:21;;;;;;;6.97;3.70;;;11.30;91.30;;;;;;5074045;28;20078;-76
2021/10/05 06:04:47;;;;;;;9.90;4.95;;;11.30;91.30;;;;;;5056629;28;20055;-76
2021/10/05 06:07:13;;;;;;;10.00;4.13;;;11.30;91.30;;;;;;5074314;28;20539;-75
2021/10/05 06:09:38;;;;;;;15.50;7.45;;;11.40;91.50;;;;;;5056634;28;20464;-75
2021/10/05 06:12:07;;;;;;;10.32;5.22;;;11.30;91.40;;;;;;5056487;28;20056;-75
2021/10/05 06:14:33;;;;;;;8.30;4.32;;;11.30;91.40;;;;;;5056458;28;20070;-75
2021/10/05 06:17:04;;;;;;;6.18;3.70;;;11.30;91.50;;;;;;5056563;28;20475;-75
2021/10/05 06:19:30;;;;;;;8.80;4.90;;;11.30;91.50;;;;;;5056083;28;20021;-75
2021/10/05 06:21:56;;;;;;;11.15;7.07;;;11.30;91.50;;;;;;5056125;28;20028;-75
2021/10/05 06:24:21;;;;;;;10.85;6.82;;;11.40;91.40;;;;;;5056177;28;20020;-76
2021/10/05 06:26:47;;;;;;;12.68;8.80;;;11.30;91.50;;;;;;5056306;28;20153;-75
2021/10/05 06:29:13;;;;;;;11.25;7.65;;;11.30;91.50;;;;;;5055879;28;20384;-75
2021/10/05 06:31:38;;;;;;;13.25;7.95;;;11.30;91.40;;;;;;5056124;28;20078;-75
2021/10/05 06:34:04;;;;;;;13.40;7.47;;;11.30;91.50;;;;;;5055971;28;20021;-75
2021/10/05 06:36:30;;;;;;;13.35;7.20;;;11.40;91.50;;;;;;5074217;28;20025;-74
2021/10/05 06:38:56;;;;;;;9.15;5.30;;;11.40;91.70;;;;;;5056072;28;20025;-75
2021/10/05 06:41:22;;;;;;;13.25;7.95;;;11.60;91.30;;;;;;5056238;28;20078;-75
2021/10/05 06:43:48;;;;;;;11.23;7.10;;;11.70;91.00;;;;;;5074043;28;20028;-75
2021/10/05 06:46:14;;;;;;;13.77;8.90;;;11.70;91.00;;;;;;5077984;28;20086;-75
2021/10/05 06:48:39;;;;;;;11.35;6.05;;;11.70;91.10;;;;;;5064188;28;20020;-73
2021/10/05 06:51:05;;;;;;;10.38;6.88;;;11.80;90.90;;;;;;5063930;28;20025;-74
2021/10/05 06:53:31;;;;;;;14.75;7.55;;;11.80;90.70;;;;;;5074298;28;20528;-74
2021/10/05 06:55:57;;;;;;;10.00;4.75;;;11.80;90.70;;;;;;5074031;28;20025;-75
2021/10/05 06:58:23;;;;;;;12.98;8.75;;;11.90;90.70;;;;;;5073358;28;20029;-76
2021/10/05 07:00:49;;;;;;;12.65;8.52;;;12.10;90.60;;;;;;5073655;28;20024;-76
2021/10/05 07:03:14;;;;;;;9.20;5.20;;;12.30;90.40;;;;;;5073280;28;20399;-75
2021/10/05 07:05:40;;;;;;;13.40;8.00;;;12.40;90.00;;;;;;5055775;28;20486;-75
2021/10/05 07:08:09;;;;;;;11.35;6.32;;;12.50;89.60;;;;;;5055827;28;20016;-74
2021/10/05 07:10:37;;;;;;;10.85;5.70;;;12.70;89.30;;;;;;5055022;28;20028;-75
2021/10/05 07:13:09;;;;;;;5.50;3.30;;;12.80;88.60;;;;;;5056372;28;20020;-76
2021/10/05 07:15:35;;;;;;;6.95;4.03;;;13.00;87.90;;;;;;5054983;28;20389;-75
2021/10/05 07:18:00;;;;;;;8.95;5.72;;;13.10;87.20;;;;;;5073365;28;20032;-75
2021/10/05 07:20:27;;;;;;;8.50;5.18;;;13.20;86.90;;;;;;5072943;28;20021;-74
2021/10/05 07:22:53;;;;;;;8.63;4.88;;;13.30;86.50;;;;;;5073262;28;20071;-74
2021/10/05 07:25:19;;;;;;;10.00;5.68;;;13.30;85.90;;;;;;5055042;28;20040;-74
2021/10/05 07:27:50;;;;;;;11.70;5.50;;;13.40;85.50;;;;;;5072842;28;20101;-76
2021/10/05 07:30:18;;;;;;;9.50;4.03;;;13.50;85.60;;;;;;5072789;28;20038;-76
2021/10/05 07:32:44;;;;;;;8.48;4.70;;;13.50;85.40;;;;;;5073117;28;20024;-75
2021/10/05 07:35:10;;;;;;;9.15;5.30;;;13.50;85.50;;;;;;5055303;28;20027;-75
2021/10/05 07:37:35;;;;;;;11.70;7.47;;;13.40;85.90;;;;;;5072808;28;20032;-76
2021/10/05 07:40:01;;;;;;;9.95;4.97;;;13.30;85.20;;;;;;5060788;28;20033;-76
2021/10/05 07:42:27;;;;;;;9.55;4.90;;;13.20;85.90;;;;;;5086206;28;20024;-74
2021/10/05 07:44:52;;;;;;;7.47;5.20;;;13.10;86.10;;;;;;5075900;28;20399;-75
2021/10/05 07:47:18;;;;;;;10.52;6.82;;;13.10;87.20;;;;;;5044660;28;20071;-75
2021/10/05 07:49:44;;;;;;;9.45;6.55;;;13.00;86.70;;;;;;5034926;28;20025;-75
2021/10/05 07:52:09;;;;;;;10.15;6.47;;;12.90;87.10;;;;;;5037224;28;20391;-75
2021/10/05 07:54:36;;;;;;;10.35;6.13;;;12.80;87.50;;;;;;5072634;28;20020;-75
2021/10/05 07:57:04;;;;;;;7.57;5.32;;;12.80;87.60;;;;;;5072639;28;20052;-74
2021/10/05 07:59:29;;;;;;;10.77;7.03;;;12.80;88.30;;;;;;5072199;28;20021;-74
2021/10/05 08:01:55;;;;;;;9.35;5.95;;;12.80;88.10;;;;;;5054277;28;20074;-73
2021/10/05 08:04:21;;;;;;;6.97;2.88;;;13.00;88.00;;;;;;5071577;28;20504;-75
2021/10/05 08:06:47;;;;;;;9.40;6.28;;;13.30;87.50;;;;;;5054297;28;20037;-75
2021/10/05 08:09:14;;;;;;;10.70;5.70;;;13.60;85.40;;;;;;5072212;28;20074;-75
2021/10/05 08:11:41;;;;;;;16.33;6.07;;;13.70;84.60;;;;;;5072249;28;20016;-74
2021/10/05 08:14:07;;;;;;;7.03;4.07;;;13.90;84.20;;;;;;5072343;28;20028;-75
2021/10/05 08:16:32;;;;;;;9.18;4.97;;;14.20;83.30;;;;;;5072009;28;20074;-74
2021/10/05 08:18:59;;;;;;;7.05;3.97;;;14.30;82.80;;;;;;5054094;28;20037;-76
2021/10/05 08:21:25;;;;;;;7.50;4.32;;;14.40;82.90;;;;;;5054396;28;20085;-75
2021/10/05 08:23:52;;;;;;;10.15;4.35;;;14.70;82.80;;;;;;5072123;28;20090;-76
2021/10/05 08:26:19;;;;;;;8.02;6.03;;;14.90;81.50;;;;;;5054215;28;20039;-76
2021/10/05 08:28:45;;;;;;;7.65;4.53;;;14.80;81.40;;;;;;5054423;28;20103;-75
2021/10/05 08:31:10;;;;;;;7.38;4.15;;;14.90;81.90;;;;;;5054984;28;20129;-76
2021/10/05 08:33:36;;;;;;;8.43;3.13;;;15.00;81.40;;;;;;5073825;28;20062;-75
2021/10/05 08:36:02;;;;;;;5.32;3.00;;;15.20;82.60;;;;;;5058044;28;20024;-75
2021/10/05 08:38:28;;;;;;;9.18;4.10;;;15.30;81.10;;;;;;5059649;28;20025;-76
2021/10/05 08:40:55;;;;;;;7.93;4.03;;;15.50;80.10;;;;;;5079375;28;20100;-76
2021/10/05 08:43:21;;;;;;;10.38;4.18;;;15.60;78.30;;;;;;5074101;28;20052;-76
2021/10/05 08:45:47;;;;;;;10.35;5.55;;;15.60;79.10;;;;;;5072394;28;20041;-75
2021/10/05 08:48:13;;;;;;;6.65;3.38;;;15.80;77.60;;;;;;5054067;28;20053;-76
2021/10/05 08:50:40;;;;;;;5.53;2.80;;;15.90;79.10;;;;;;5053339;28;20017;-75
2021/10/05 08:53:06;;;;;;;12.98;4.82;;;15.90;79.70;;;;;;5072399;28;20075;-77
2021/10/05 08:55:32;;;;;;;6.90;4.15;;;16.10;77.20;;;;;;5054914;28;20429;-76
2021/10/05 08:57:57;;;;;;;8.10;4.35;;;16.20;78.00;;;;;;5075833;28;20028;-75
2021/10/05 09:00:28;;;;;;;7.30;4.20;;;16.30;76.10;;;;;;5057990;28;20059;-75
2021/10/05 09:02:55;;;;;;;6.18;3.05;;;16.40;77.60;;;;;;5077137;28;20049;-77
2021/10/05 09:05:22;;;;;;;6.38;3.42;;;16.60;77.30;;;;;;5075728;28;20020;-76
2021/10/05 09:07:51;;;;;;;7.57;3.60;;;16.60;75.70;;;;;;5058068;28;20085;-75
2021/10/05 09:10:23;;;;;;;6.75;3.15;;;16.70;75.60;;;;;;5076243;28;20157;-76
2021/10/05 09:12:52;;;;;;;8.85;3.72;;;16.70;76.40;;;;;;5057960;28;20032;-77
2021/10/05 09:15:20;;;;;;;6.50;2.87;;;16.80;75.90;;;;;;5076536;28;20113;-77
2021/10/05 09:17:55;;;;;;;6.20;3.03;;;16.90;77.00;;;;;;5075928;28;20027;-76
2021/10/05 09:20:28;;;;;;;7.82;3.38;;;17.10;78.10;;;;;;5057617;28;20389;-76
2021/10/05 09:23:07;;;;;;;7.53;3.17;;;17.20;74.60;;;;;;5057424;28;20027;-76
2021/10/05 09:25:39;;;;;;;7.30;3.53;;;17.50;76.50;;;;;;5057568;28;20021;-76
2021/10/05 09:28:22;;;;;;;4.28;1.98;;;17.50;73.60;;;;;;5057707;28;20437;-77
2021/10/05 09:31:04;;;;;;;7.45;2.88;;;17.60;77.90;;;;;;5057584;28;20113;-77
2021/10/05 09:33:30;;;;;;;5.63;2.03;;;17.70;75.70;;;;;;5057083;28;20025;-76
2021/10/05 09:35:56;;;;;;;5.13;2.40;;;17.80;76.00;;;;;;5057845;28;20096;-75
2021/10/05 09:38:24;;;;;;;3.67;2.17;;;17.90;75.20;;;;;;5075640;28;20025;-76
2021/10/05 09:41:06;;;;;;;6.80;2.38;;;17.90;75.70;;;;;;5075591;28;20103;-76
2021/10/05 09:43:32;;;;;;;5.78;2.60;;;17.90;72.10;;;;;;5075485;28;20035;-76
2021/10/05 09:46:16;;;;;;;4.05;1.80;;;18.00;73.60;;;;;;5082767;28;20037;-75
2021/10/05 09:48:42;;;;;;;5.00;2.05;;;18.20;74.60;;;;;;5088726;28;20022;-76
2021/10/05 09:51:25;;;;;;;8.13;2.38;;;18.30;74.40;;;;;;5057999;28;20028;-76
2021/10/05 09:53:52;;;;;;;6.97;2.50;;;18.40;72.50;;;;;;5075536;28;20029;-77
2021/10/05 09:56:20;;;;;;;8.13;1.80;;;18.30;71.20;;;;;;5057276;28;20040;-77
2021/10/05 09:58:46;;;;;;;6.03;2.13;;;18.50;77.70;;;;;;5057100;28;20541;-75
2021/10/05 10:01:11;;;;;;;6.32;2.20;;;18.80;74.90;;;;;;5074981;28;20037;-76
2021/10/05 10:03:38;;;;;;;4.22;1.80;;;18.90;71.80;;;;;;5056875;28;20031;-77
2021/10/05 10:06:06;;;;;;;3.80;1.33;;;19.00;68.70;;;;;;5074782;28;20353;-76
2021/10/05 10:08:34;;;;;;;6.25;1.70;;;19.10;76.60;;;;;;5074033;28;20070;-78
2021/10/05 10:11:00;;;;;;;4.20;1.15;;;19.40;67.80;;;;;;5057109;28;20377;-77
2021/10/05 10:13:27;;;;;;;5.20;1.40;;;19.50;76.50;;;;;;5057023;28;20024;-78
2021/10/05 10:15:56;;;;;;;3.53;1.10;;;19.60;72.10;;;;;;5056860;28;20124;-77
2021/10/05 10:18:22;;;;;;;2.22;0.98;;;19.50;75.70;;;;;;5056709;28;20095;-76
2021/10/05 10:21:09;;;;;;;5.82;1.83;;;19.50;70.70;;;;;;5074446;28;20020;-76
2021/10/05 10:23:36;;;;;;;4.95;1.00;;;19.50;69.10;;;;;;5076513;28;20448;-76
2021/10/05 10:26:11;;;;;;;3.70;1.40;;;19.60;77.30;;;;;;5063547;28;20052;-77
2021/10/05 10:28:42;;;;;;;4.38;1.42;;;19.60;73.50;;;;;;5071814;28;20100;-77
2021/10/05 10:31:11;;;;;;;5.22;1.40;;;19.60;74.80;;;;;;5066159;28;20029;-77
2021/10/05 10:33:47;;;;;;;8.40;1.70;;;;;;;;;;5057907;28;20419;-77
2021/10/05 10:36:13;;;;;;;3.53;1.20;;;19.70;76.60;;;;;;5074365;28;20630;-76
2021/10/05 10:38:43;;;;;;;5.03;1.55;;;20.00;74.70;;;;;;5056001;28;20048;-76
2021/10/05 10:41:19;;;;;;;6.37;2.10;;;20.00;75.00;;;;;;5055872;28;20028;-76
2021/10/05 10:44:01;;;;;;;7.00;1.77;;;20.00;74.10;;;;;;5056404;28;20519;-75
2021/10/05 10:46:29;;;;;;;5.60;1.30;;;19.90;70.40;;;;;;5052025;28;20123;-75
2021/10/05 10:48:56;;;;;;;5.22;1.35;;;19.80;72.60;;;;;;5056075;28;20039;-77
2021/10/05 10:51:27;;;;;;;4.22;1.17;;;19.80;70.40;;;;;;5056076;28;20017;-76
2021/10/05 10:53:57;;;;;;;4.72;1.00;;;19.70;69.20;;;;;;5055907;28;20115;-77
2021/10/05 10:56:34;;;;;;;4.30;1.23;;;19.70;75.00;;;;;;5052932;28;20021;-77
2021/10/05 10:59:03;;;;;;;4.38;1.20;;;19.60;73.10;;;;;;5036030;28;20028;-76
2021/10/05 11:01:46;;;;;;;5.38;1.52;;;19.60;69.00;;;;;;5035792;28;20033;-75
2021/10/05 11:04:13;;;;;;;5.07;1.60;;;19.60;71.50;;;;;;5054211;28;20500;-77
2021/10/05 11:06:44;;;;;;;6.78;2.03;;;19.50;71.50;;;;;;5036020;28;20355;-76
2021/10/05 11:09:09;;;;;;;4.80;2.05;;;19.40;73.20;;;;;;5054473;28;20021;-76
2021/10/05 11:11:42;;;;;;;5.43;1.60;;;19.30;74.30;;;;;;5045720;28;20035;-77
2021/10/05 11:14:14;;;;;;;6.03;1.65;;;19.10;70.20;;;;;;5078362;28;20465;-75
2021/10/05 11:16:41;;;;;;;4.03;1.50;;;18.90;74.60;;;;;;5058258;28;20020;-75
2021/10/05 11:19:16;;;;;;;5.30;1.77;;;18.80;73.90;;;;;;5055097;28;20021;-76
2021/10/05 11:21:49;;;;;;;5.28;1.70;;;18.60;74.30;;;;;;5055470;28;20025;-76
2021/10/05 11:24:16;;;;;;;5.95;1.77;;;18.50;71.90;;;;;;5073345;28;20028;-76
2021/10/05 11:26:46;;;;;;;4.13;1.63;;;18.60;75.00;;;;;;5055095;28;20020;-76
2021/10/05 11:29:24;;;;;;;4.32;1.65;;;18.70;73.40;;;;;;5052135;28;20040;-78
2021/10/05 11:31:57;;;;;;;5.53;1.60;;;18.70;74.90;;;;;;5052298;28;20131;-76
2021/10/05 11:34:22;;;;;;;4.93;1.77;;;18.60;72.90;;;;;;5055431;28;20016;-77
2021/10/05 11:36:48;;;;;;;5.00;1.65;;;18.60;74.10;;;;;;5073043;28;20029;-76
2021/10/05 11:39:24;;;;;;;4.30;1.80;;;18.40;75.50;;;;;;5055173;28;20017;-75
2021/10/05 11:41:58;;;;;;;4.07;1.58;;;18.40;77.70;;;;;;5055085;28;20486;-76
2021/10/05 11:44:27;;;;;;;5.55;2.00;;;18.40;75.70;;;;;;5054841;28;20094;-76
2021/10/05 11:46:55;;;;;;;3.40;1.30;;;18.40;76.70;;;;;;5074090;28;20024;-76
2021/10/05 11:49:22;;;;;;;6.75;1.67;;;18.40;78.60;;;;;;5059116;28;20023;-76
2021/10/05 11:51:51;;;;;;;4.95;1.45;;;18.30;75.50;;;;;;5071077;28;20028;-75
2021/10/05 11:54:22;;;;;;;4.05;1.58;;;18.30;76.40;;;;;;5073736;28;20032;-77
2021/10/05 11:56:49;;;;;;;5.10;1.63;;;18.20;77.90;;;;;;5072976;28;20036;-75
2021/10/05 11:59:32;;;;;;;3.13;1.60;;;18.10;77.60;;;;;;5055097;28;20016;-75
2021/10/05 12:02:09;;;;;;;5.95;1.70;;;18.10;76.30;;;;;;5055280;28;20113;-77
2021/10/05 12:04:36;;;;;;;5.43;1.60;;;18.20;77.70;;;;;;5057391;28;20031;-76
2021/10/05 12:07:07;;;;;;;3.70;1.33;;;18.20;76.80;;;;;;5073919;28;20024;-76
2021/10/05 12:09:32;;;;;;;;;;;18.20;75.40;;;;;;5055292;28;20032;-75
2021/10/05 12:12:18;;;;;;;7.68;1.75;;;18.20;74.00;;;;;;5073715;28;19904;-76
2021/10/05 12:15:00;;;;;;;7.28;2.13;;;18.10;76.70;;;;;;5060516;28;20037;-77
2021/10/05 12:17:26;;;;;;;4.63;1.65;;;18.10;74.70;;;;;;5091245;28;20029;-76
2021/10/05 12:19:57;;;;;;;6.30;1.55;;;18.10;75.40;;;;;;5064743;28;20046;-77
2021/10/05 12:22:27;;;;;;;3.95;1.60;;;18.00;75.60;;;;;;5054821;28;20040;-77
2021/10/05 12:24:55;;;;;;;4.03;1.50;;;17.90;77.70;;;;;;5054364;28;20328;-75
2021/10/05 12:27:41;;;;;;;2.72;1.40;;;17.90;74.70;;;;;;5054557;28;20016;-76
2021/10/05 12:30:16;;;;;;;7.07;1.55;;;17.80;73.50;;;;;;5054727;28;20055;-77
2021/10/05 12:32:48;;;;;;;4.05;1.77;;;17.80;76.70;;;;;;5058446;28;20028;-77
2021/10/05 12:35:25;;;;;;;7.18;1.83;;;17.80;77.00;;;;;;5058783;28;20020;-75
2021/10/05 12:38:04;;;;;;;4.15;1.60;;;17.80;78.10;;;;;;5076464;28;20029;-76
2021/10/05 12:40:50;;;;;;;5.18;1.77;;;17.80;79.00;;;;;;5076586;28;20025;-76
2021/10/05 12:43:39;;;;;;;5.15;1.58;;;17.80;76.90;;;;;;5076192;28;20040;-76
2021/10/05 12:46:07;;;;;;;5.70;2.08;;;17.70;75.20;;;;;;5057866;28;20024;-75
2021/10/05 12:48:44;;;;;;;5.35;1.88;;;17.70;77.80;;;;;;5058426;28;20561;-75